Time;durP1;ratioP1;P1;durP2;ratioP2;P2;SDS_P1;SDS_P2;PMS_P1;PMS_P2;Temp;Humidity;BMP_temperature;BMP_pressure;BME280_temperature;BME280_humidity;BME280_pressure;Samples;Min_cycle;Max_cycle;Signal;HPM_P1;HPM_P2
2023/05/04 00:02:19;;;;;;;4.05;1.88;;;20.30;99.90;;;;;;5115588;28;20034;-72
2023/05/04 00:04:44;;;;;;;2.50;2.00;;;20.20;99.90;;;;;;5115857;28;20428;-72
2023/05/04 00:07:11;;;;;;;3.83;2.00;;;20.30;99.90;;;;;;5115047;28;20023;-70
2023/05/04 00:09:36;;;;;;;2.70;1.90;;;20.20;99.90;;;;;;5115024;28;20024;-71
2023/05/04 00:12:02;;;;;;;3.45;2.08;;;20.10;99.90;;;;;;5115029;28;20531;-72
2023/05/04 00:14:28;;;;;;;3.10;2.13;;;20.00;99.90;;;;;;5115055;28;20073;-71
2023/05/04 00:16:54;;;;;;;3.75;1.90;;;20.00;99.90;;;;;;5115050;28;20045;-71
2023/05/04 00:19:21;;;;;;;2.90;1.83;;;20.00;99.90;;;;;;5114870;28;20043;-71
2023/05/04 00:21:46;;;;;;;1.80;1.70;;;20.00;99.90;;;;;;5115010;28;20035;-71
2023/05/04 00:24:12;;;;;;;2.88;2.00;;;20.00;99.90;;;;;;5115181;28;20570;-72
2023/05/04 00:26:38;;;;;;;6.47;2.40;;;19.90;99.90;;;;;;5115008;28;20099;-72
2023/05/04 00:29:03;;;;;;;5.18;2.08;;;19.90;99.90;;;;;;5115174;28;20634;-71
2023/05/04 00:31:29;;;;;;;4.00;1.98;;;19.80;99.90;;;;;;5114817;28;20024;-71
2023/05/04 00:33:55;;;;;;;4.70;2.10;;;19.80;99.90;;;;;;5114760;28;20451;-71
2023/05/04 00:36:21;;;;;;;4.28;2.05;;;19.80;99.90;;;;;;5114606;28;20103;-72
2023/05/04 00:38:48;;;;;;;5.20;2.08;;;19.80;99.90;;;;;;5114907;28;20043;-72
2023/05/04 00:41:15;;;;;;;6.60;2.28;;;19.80;99.90;;;;;;5114699;28;20081;-71
2023/05/04 00:43:41;;;;;;;2.47;2.10;;;19.70;99.90;;;;;;5114409;28;20034;-72
2023/05/04 00:46:07;;;;;;;4.88;2.22;;;19.60;99.90;;;;;;5114930;28;20476;-72
2023/05/04 00:48:33;;;;;;;4.63;2.13;;;19.60;99.90;;;;;;5114410;28;20092;-72
2023/05/04 00:50:59;;;;;;;2.33;1.90;;;19.60;99.90;;;;;;5113953;28;20024;-71
2023/05/04 00:53:25;;;;;;;7.20;3.15;;;19.60;99.90;;;;;;5114519;28;20046;-71
2023/05/04 00:55:51;;;;;;;14.02;4.28;;;19.50;99.90;;;;;;5113625;28;20031;-72
2023/05/04 00:58:17;;;;;;;17.13;5.13;;;19.50;99.90;;;;;;5114570;28;20032;-71
2023/05/04 01:00:43;;;;;;;21.35;5.63;;;19.40;99.90;;;;;;5114404;28;20395;-71
2023/05/04 01:03:09;;;;;;;31.02;6.57;;;19.20;99.90;;;;;;5114014;28;20072;-72
2023/05/04 01:05:39;;;;;;;24.08;6.47;;;19.10;99.90;;;;;;5113694;28;20019;-71
2023/05/04 01:08:29;;;;;;;29.58;7.22;;;19.10;99.90;;;;;;5114017;28;20427;-72
2023/05/04 01:11:09;;;;;;;29.50;7.22;;;19.10;99.90;;;;;;5114377;28;20148;-71
2023/05/04 01:13:36;;;;;;;25.67;7.07;;;18.90;99.90;;;;;;5113837;28;20127;-72
2023/05/04 01:16:02;;;;;;;31.13;7.80;;;18.80;99.90;;;;;;5113779;28;20058;-72
2023/05/04 01:18:28;;;;;;;31.80;7.65;;;18.70;99.90;;;;;;5113528;28;20122;-71
2023/05/04 01:20:54;;;;;;;31.58;7.57;;;18.60;99.90;;;;;;5114087;28;20111;-71
2023/05/04 01:23:21;;;;;;;29.42;7.65;;;18.60;99.90;;;;;;5114219;28;20369;-71
2023/05/04 01:25:55;;;;;;;27.20;7.10;;;18.60;99.90;;;;;;5112697;28;20054;-71
2023/05/04 01:28:31;;;;;;;28.27;7.72;;;18.60;99.90;;;;;;5112729;28;20023;-71
2023/05/04 01:30:59;;;;;;;37.30;7.78;;;18.60;99.90;;;;;;5113338;28;20080;-71
2023/05/04 01:33:27;;;;;;;28.85;7.15;;;18.50;99.90;;;;;;5112912;28;20023;-71
2023/05/04 01:35:53;;;;;;;29.38;7.63;;;18.50;99.90;;;;;;5113715;28;20043;-72
2023/05/04 01:38:19;;;;;;;28.83;7.90;;;18.60;99.90;;;;;;5113480;28;20035;-72
2023/05/04 01:40:44;;;;;;;33.42;8.20;;;18.40;99.90;;;;;;5113808;28;20574;-72
2023/05/04 01:43:10;;;;;;;28.92;8.27;;;18.30;99.90;;;;;;5113375;28;20034;-72
2023/05/04 01:45:36;;;;;;;30.05;8.40;;;18.30;99.90;;;;;;5113188;28;20502;-72
2023/05/04 01:48:01;;;;;;;30.73;8.00;;;18.20;99.90;;;;;;5113054;28;20373;-72
2023/05/04 01:50:27;;;;;;;36.42;8.52;;;18.20;99.90;;;;;;5113401;28;20031;-72
2023/05/04 01:52:53;;;;;;;31.90;8.50;;;18.10;99.90;;;;;;5113276;28;20503;-71
2023/05/04 01:55:18;;;;;;;32.72;8.68;;;18.20;99.90;;;;;;5113615;28;20059;-70
2023/05/04 01:57:44;;;;;;;27.83;8.32;;;18.10;99.90;;;;;;5113078;28;21134;-71
2023/05/04 02:00:10;;;;;;;31.05;7.80;;;18.00;99.90;;;;;;5113133;28;20382;-72
2023/05/04 02:02:36;;;;;;;38.53;8.43;;;17.90;99.90;;;;;;5112717;28;20080;-71
2023/05/04 02:05:02;;;;;;;28.50;7.90;;;17.90;99.90;;;;;;5113316;28;20027;-72
2023/05/04 02:07:27;;;;;;;40.65;9.27;;;17.90;99.90;;;;;;5111835;28;20048;-72
2023/05/04 02:09:53;;;;;;;37.33;8.82;;;17.90;99.90;;;;;;5112878;28;20035;-71
2023/05/04 02:12:19;;;;;;;32.40;8.60;;;17.90;99.90;;;;;;5112726;28;20043;-72
2023/05/04 02:14:44;;;;;;;28.77;7.65;;;17.90;99.90;;;;;;5113373;28;20023;-71
2023/05/04 02:17:11;;;;;;;31.08;7.15;;;17.90;99.90;;;;;;5112572;28;20045;-71
2023/05/04 02:19:37;;;;;;;27.00;7.45;;;17.90;99.90;;;;;;5112612;28;20043;-72
2023/05/04 02:22:02;;;;;;;28.02;7.25;;;17.90;99.90;;;;;;5112719;28;20031;-71
2023/05/04 02:24:28;;;;;;;29.67;6.40;;;17.90;99.90;;;;;;5113106;28;20023;-71
2023/05/04 02:26:53;;;;;;;25.17;6.20;;;17.90;99.90;;;;;;5112516;28;20050;-71
2023/05/04 02:29:19;;;;;;;22.05;6.20;;;17.90;99.90;;;;;;5112751;28;20051;-72
2023/05/04 02:31:45;;;;;;;24.20;7.00;;;18.00;99.90;;;;;;5112100;28;20028;-71
2023/05/04 02:34:11;;;;;;;18.65;5.30;;;18.00;99.90;;;;;;5112553;28;20043;-71
2023/05/04 02:36:37;;;;;;;20.42;5.10;;;18.00;99.90;;;;;;5112471;28;20505;-70
2023/05/04 02:39:02;;;;;;;22.17;5.80;;;18.00;99.90;;;;;;5112842;28;20028;-71
2023/05/04 02:41:28;;;;;;;23.50;5.32;;;18.00;99.90;;;;;;5112338;28;20031;-72
2023/05/04 02:43:54;;;;;;;19.52;4.85;;;18.00;99.90;;;;;;5112233;28;20032;-72
2023/05/04 02:46:20;;;;;;;23.85;5.25;;;18.00;99.90;;;;;;5111840;28;20047;-72
2023/05/04 02:48:45;;;;;;;26.10;6.22;;;17.90;99.90;;;;;;5112279;28;20081;-72
2023/05/04 02:51:11;;;;;;;21.95;4.90;;;18.00;99.90;;;;;;5112570;28;20031;-71
2023/05/04 02:53:37;;;;;;;17.70;4.80;;;17.90;99.90;;;;;;5112184;28;20028;-71
2023/05/04 02:56:03;;;;;;;16.50;4.68;;;18.00;99.90;;;;;;5112158;28;20059;-71
2023/05/04 02:58:28;;;;;;;19.30;5.45;;;17.90;99.90;;;;;;5111600;28;20027;-72
2023/05/04 03:00:54;;;;;;;24.65;5.70;;;17.90;99.90;;;;;;5111611;28;20431;-72
2023/05/04 03:03:20;;;;;;;21.00;4.85;;;17.90;99.90;;;;;;5112016;28;20027;-71
2023/05/04 03:05:46;;;;;;;21.08;5.07;;;17.90;99.90;;;;;;5111983;28;20084;-72
2023/05/04 03:08:12;;;;;;;17.10;4.30;;;18.00;99.90;;;;;;5112139;28;20030;-71
2023/05/04 03:10:37;;;;;;;21.35;4.65;;;18.00;99.90;;;;;;5111948;28;20031;-71
2023/05/04 03:13:04;;;;;;;18.58;4.50;;;18.00;99.90;;;;;;5111525;28;20130;-72
2023/05/04 03:15:33;;;;;;;15.40;4.18;;;18.00;99.90;;;;;;5111947;28;20020;-71
2023/05/04 03:17:59;;;;;;;18.75;4.78;;;18.00;99.90;;;;;;5111586;28;20039;-72
2023/05/04 03:20:25;;;;;;;15.13;3.92;;;18.00;99.90;;;;;;5111989;28;20055;-71
2023/05/04 03:22:51;;;;;;;19.73;4.95;;;18.00;99.90;;;;;;5111873;28;20047;-71
2023/05/04 03:25:17;;;;;;;20.95;4.88;;;18.00;99.90;;;;;;5111768;28;20488;-72
2023/05/04 03:27:42;;;;;;;17.20;4.75;;;18.00;99.90;;;;;;5093604;28;20028;-72
2023/05/04 03:30:09;;;;;;;18.85;5.13;;;18.00;99.90;;;;;;5111412;28;20057;-71
2023/05/04 03:32:35;;;;;;;16.38;4.57;;;18.00;99.90;;;;;;5111805;28;20027;-72
2023/05/04 03:35:00;;;;;;;17.90;4.57;;;18.00;99.90;;;;;;5111558;28;20800;-72
2023/05/04 03:37:26;;;;;;;19.00;4.55;;;18.00;99.90;;;;;;5111628;28;20119;-72
2023/05/04 03:39:52;;;;;;;20.40;4.65;;;18.00;99.90;;;;;;5111604;28;20165;-71
2023/05/04 03:42:17;;;;;;;20.77;4.63;;;17.90;99.90;;;;;;5111629;28;20024;-71
2023/05/04 03:44:43;;;;;;;23.10;4.68;;;17.90;99.90;;;;;;5111269;28;20023;-71
2023/05/04 03:47:09;;;;;;;19.25;4.57;;;17.90;99.90;;;;;;5111599;28;20096;-72
2023/05/04 03:49:34;;;;;;;20.23;4.78;;;17.80;99.90;;;;;;5111830;28;20116;-71
2023/05/04 03:52:00;;;;;;;17.17;4.60;;;17.80;99.90;;;;;;5111475;28;20024;-70
2023/05/04 03:54:26;;;;;;;18.08;4.80;;;17.80;99.90;;;;;;5111647;28;20035;-71
2023/05/04 03:56:52;;;;;;;19.25;4.45;;;17.70;99.90;;;;;;5111341;28;20026;-71
2023/05/04 03:59:18;;;;;;;20.23;4.85;;;17.70;99.90;;;;;;5111049;28;20503;-71
2023/05/04 04:01:43;;;;;;;20.65;4.97;;;17.70;99.90;;;;;;5111508;28;20106;-70
2023/05/04 04:04:09;;;;;;;19.08;4.95;;;17.60;99.90;;;;;;5111432;28;20024;-72
2023/05/04 04:06:35;;;;;;;21.98;4.72;;;17.50;99.90;;;;;;5111420;28;20107;-71
2023/05/04 04:09:00;;;;;;;16.25;4.40;;;17.50;99.90;;;;;;5111320;28;20114;-71
2023/05/04 04:11:26;;;;;;;17.08;4.47;;;17.50;99.90;;;;;;5111061;28;20518;-72
2023/05/04 04:13:52;;;;;;;18.10;4.72;;;17.50;99.90;;;;;;5110980;28;20058;-71
2023/05/04 04:16:20;;;;;;;19.08;4.50;;;17.50;99.90;;;;;;5111464;28;20484;-71
2023/05/04 04:18:45;;;;;;;21.13;4.97;;;17.40;99.90;;;;;;5111338;28;20161;-71
2023/05/04 04:21:11;;;;;;;18.90;4.80;;;17.40;99.90;;;;;;5111218;28;20110;-71
2023/05/04 04:23:37;;;;;;;19.42;5.13;;;17.40;99.90;;;;;;5111172;28;20019;-71
2023/05/04 04:26:05;;;;;;;20.02;5.18;;;17.30;99.90;;;;;;5111397;28;20023;-72
2023/05/04 04:28:32;;;;;;;24.52;5.28;;;17.30;99.90;;;;;;5110969;28;20024;-72
2023/05/04 04:30:58;;;;;;;21.75;4.60;;;17.40;99.90;;;;;;5113285;28;20055;-69
2023/05/04 04:33:24;;;;;;;21.40;4.50;;;17.30;99.90;;;;;;5115026;28;20024;-71
2023/05/04 04:35:50;;;;;;;19.45;4.28;;;17.20;99.90;;;;;;5114901;28;20028;-71
2023/05/04 04:38:16;;;;;;;16.35;4.75;;;17.20;99.90;;;;;;5115138;28;20644;-72
2023/05/04 04:40:42;;;;;;;20.63;4.72;;;17.20;99.90;;;;;;5114490;28;20027;-71
2023/05/04 04:43:08;;;;;;;17.08;4.95;;;17.20;99.90;;;;;;5114805;28;20612;-72
2023/05/04 04:45:34;;;;;;;19.23;4.72;;;17.20;99.90;;;;;;5114617;28;20110;-71
2023/05/04 04:48:00;;;;;;;18.27;4.40;;;17.20;99.90;;;;;;5114931;28;20399;-71
2023/05/04 04:50:26;;;;;;;17.08;4.45;;;17.10;99.90;;;;;;5114134;28;20032;-71
2023/05/04 04:52:52;;;;;;;17.70;4.90;;;17.10;99.90;;;;;;5113449;28;20012;-71
2023/05/04 04:55:17;;;;;;;23.15;5.82;;;17.10;99.90;;;;;;5114034;28;20111;-71
2023/05/04 04:57:43;;;;;;;17.70;4.45;;;17.10;99.90;;;;;;5114148;28;20484;-71
2023/05/04 05:00:09;;;;;;;19.48;4.80;;;17.00;99.90;;;;;;5113850;28;20023;-70
2023/05/04 05:02:35;;;;;;;16.33;4.80;;;17.00;99.90;;;;;;5113514;28;20020;-72
2023/05/04 05:05:01;;;;;;;20.33;4.90;;;17.10;99.90;;;;;;5114238;28;20024;-72
2023/05/04 05:07:27;;;;;;;20.33;4.78;;;17.10;99.90;;;;;;5114105;28;20047;-71
2023/05/04 05:09:52;;;;;;;21.42;5.00;;;16.90;99.90;;;;;;5113582;28;20784;-70
2023/05/04 05:12:18;;;;;;;21.25;4.93;;;16.90;99.90;;;;;;5114260;28;20515;-70
2023/05/04 05:14:46;;;;;;;21.67;5.05;;;16.90;99.90;;;;;;5114093;28;20511;-70
2023/05/04 05:17:11;;;;;;;24.55;5.45;;;16.80;99.90;;;;;;5113973;28;20042;-70
2023/05/04 05:19:37;;;;;;;18.70;4.72;;;16.80;99.90;;;;;;5113687;28;20028;-70
2023/05/04 05:22:03;;;;;;;21.20;4.80;;;16.90;99.90;;;;;;5113741;28;20032;-70
2023/05/04 05:24:29;;;;;;;17.80;4.63;;;16.80;99.90;;;;;;5112613;28;20031;-72
2023/05/04 05:26:54;;;;;;;19.73;4.95;;;16.80;99.90;;;;;;5113622;28;20027;-71
2023/05/04 05:29:20;;;;;;;20.45;5.07;;;16.80;99.90;;;;;;5113711;28;20023;-71
2023/05/04 05:31:46;;;;;;;19.90;5.45;;;16.80;99.90;;;;;;5113795;28;20058;-71
2023/05/04 05:34:11;;;;;;;22.30;5.47;;;16.80;99.90;;;;;;5113522;28;20512;-71
2023/05/04 05:36:37;;;;;;;22.52;5.22;;;16.70;99.90;;;;;;5113757;28;20476;-70
2023/05/04 05:39:03;;;;;;;23.33;5.57;;;16.70;99.90;;;;;;5112946;28;20555;-71
2023/05/04 05:41:29;;;;;;;22.60;5.43;;;16.70;99.90;;;;;;5113364;28;20106;-72
2023/05/04 05:43:55;;;;;;;22.13;5.97;;;16.70;99.90;;;;;;5113127;28;20550;-72
2023/05/04 05:46:21;;;;;;;23.75;6.03;;;16.80;99.90;;;;;;5113691;28;20107;-71
2023/05/04 05:48:47;;;;;;;20.90;5.43;;;16.70;99.90;;;;;;5113321;28;20037;-71
2023/05/04 05:51:13;;;;;;;24.70;6.28;;;16.80;99.90;;;;;;5113205;28;20019;-72
2023/05/04 05:53:39;;;;;;;22.67;5.78;;;16.80;99.90;;;;;;5112405;28;20076;-73
2023/05/04 05:56:04;;;;;;;26.20;6.05;;;16.80;99.90;;;;;;5112348;28;20024;-72
2023/05/04 05:58:30;;;;;;;28.17;6.28;;;16.80;99.90;;;;;;5112871;28;20492;-71
2023/05/04 06:00:56;;;;;;;26.85;6.13;;;16.80;99.90;;;;;;5111667;28;20080;-72
2023/05/04 06:03:21;;;;;;;30.23;5.85;;;16.80;99.90;;;;;;5112007;28;20111;-72
2023/05/04 06:05:47;;;;;;;32.33;6.28;;;16.80;99.90;;;;;;5112250;28;20016;-70
2023/05/04 06:08:13;;;;;;;30.42;7.00;;;16.90;99.90;;;;;;5112425;28;20593;-71
2023/05/04 06:10:38;;;;;;;28.15;6.88;;;16.90;99.90;;;;;;5113150;28;20019;-71
2023/05/04 06:13:04;;;;;;;26.35;6.07;;;16.90;99.90;;;;;;5112862;28;20414;-72
2023/05/04 06:15:30;;;;;;;28.48;6.65;;;17.00;99.90;;;;;;5113062;28;20515;-72
2023/05/04 06:17:56;;;;;;;30.05;7.38;;;17.00;99.90;;;;;;5112669;28;20032;-72
2023/05/04 06:20:21;;;;;;;32.10;7.32;;;17.10;99.90;;;;;;5112574;28;20521;-72
2023/05/04 06:22:47;;;;;;;31.05;7.40;;;17.10;99.90;;;;;;5112394;28;20028;-73
2023/05/04 06:25:13;;;;;;;32.67;7.25;;;17.10;99.90;;;;;;5094345;28;20024;-71
2023/05/04 06:27:38;;;;;;;28.70;7.28;;;17.20;99.90;;;;;;5112344;28;20165;-71
2023/05/04 06:30:05;;;;;;;34.33;7.53;;;17.30;99.90;;;;;;5112909;28;20031;-71
2023/05/04 06:32:31;;;;;;;32.95;7.75;;;17.20;99.90;;;;;;5112236;28;20032;-71
2023/05/04 06:34:58;;;;;;;35.08;7.63;;;17.20;99.90;;;;;;5112097;28;20036;-71
2023/05/04 06:37:25;;;;;;;30.90;6.75;;;17.30;99.90;;;;;;5112199;28;20404;-70
2023/05/04 06:39:51;;;;;;;27.23;6.82;;;17.40;99.90;;;;;;5112521;28;20032;-71
2023/05/04 06:42:16;;;;;;;26.80;6.88;;;17.50;99.90;;;;;;5112244;28;20078;-71
2023/05/04 06:44:42;;;;;;;26.98;6.43;;;17.50;99.90;;;;;;5112254;28;20482;-70
2023/05/04 06:47:07;;;;;;;23.42;6.05;;;17.60;99.90;;;;;;5093916;28;20476;-71
2023/05/04 06:49:34;;;;;;;24.50;5.85;;;17.60;99.90;;;;;;5112318;28;20027;-71
2023/05/04 06:52:00;;;;;;;30.02;7.53;;;17.60;99.90;;;;;;5111750;28;20023;-72
2023/05/04 06:54:26;;;;;;;25.58;6.45;;;17.60;99.90;;;;;;5110653;28;20026;-72
2023/05/04 06:56:52;;;;;;;30.55;6.70;;;17.50;99.90;;;;;;5110888;28;20103;-75
2023/05/04 06:59:19;;;;;;;29.83;7.25;;;17.50;99.90;;;;;;5111825;28;20130;-76
2023/05/04 07:01:46;;;;;;;22.70;7.35;;;17.60;99.90;;;;;;5111787;28;20081;-76
2023/05/04 07:04:12;;;;;;;25.33;6.38;;;17.60;99.90;;;;;;5112287;28;20027;-76
2023/05/04 07:06:40;;;;;;;23.48;6.82;;;17.60;99.90;;;;;;5111955;28;20020;-75
2023/05/04 07:09:07;;;;;;;28.83;6.57;;;17.70;99.90;;;;;;5112212;28;20042;-76
2023/05/04 07:11:32;;;;;;;25.92;6.35;;;17.70;99.90;;;;;;5112296;28;20076;-76
2023/05/04 07:13:58;;;;;;;26.67;6.43;;;17.70;99.90;;;;;;5112183;28;20032;-76
2023/05/04 07:16:25;;;;;;;29.90;6.88;;;17.70;99.90;;;;;;5112148;28;20024;-74
2023/05/04 07:18:50;;;;;;;57.08;10.32;;;17.80;99.90;;;;;;5111782;28;20032;-75
2023/05/04 07:21:16;;;;;;;388.55;33.72;;;18.00;99.90;;;;;;5112303;28;20046;-75
2023/05/04 07:23:42;;;;;;;24.10;6.07;;;18.00;99.90;;;;;;5111867;28;20477;-72
2023/05/04 07:26:08;;;;;;;23.13;5.35;;;18.00;99.90;;;;;;5111444;28;20036;-71
2023/05/04 07:28:33;;;;;;;24.83;5.65;;;18.10;99.90;;;;;;5112007;28;20020;-73
2023/05/04 07:30:59;;;;;;;22.73;5.47;;;18.20;99.90;;;;;;5111544;28;20437;-73
2023/05/04 07:33:25;;;;;;;23.63;5.63;;;18.20;99.90;;;;;;5111429;28;20081;-73
2023/05/04 07:35:57;;;;;;;16.35;4.60;;;18.30;99.90;;;;;;5111083;28;20081;-73
2023/05/04 07:38:26;;;;;;;21.48;4.50;;;18.30;99.90;;;;;;5111539;28;20446;-73
2023/05/04 07:40:53;;;;;;;30.05;5.72;;;18.30;99.90;;;;;;5111810;28;20028;-73
2023/05/04 07:43:19;;;;;;;21.17;4.50;;;18.50;99.90;;;;;;5111408;28;20484;-75
2023/05/04 07:45:44;;;;;;;17.80;4.45;;;18.40;99.90;;;;;;5111342;28;20038;-74
2023/05/04 07:48:10;;;;;;;17.67;4.13;;;18.50;99.90;;;;;;5111194;28;20073;-74
2023/05/04 07:50:36;;;;;;;17.63;4.18;;;18.50;99.90;;;;;;5111397;28;20111;-74
2023/05/04 07:53:02;;;;;;;19.48;5.13;;;18.50;99.90;;;;;;5111408;28;20110;-74
2023/05/04 07:55:29;;;;;;;22.92;4.88;;;18.50;99.90;;;;;;5111434;28;20073;-74
2023/05/04 07:57:55;;;;;;;13.48;3.58;;;18.70;99.90;;;;;;5111282;28;20102;-75
2023/05/04 08:00:21;;;;;;;11.32;2.75;;;18.60;99.90;;;;;;5111501;28;20126;-75
2023/05/04 08:02:46;;;;;;;11.27;2.80;;;18.70;99.90;;;;;;5111279;28;20077;-77
2023/05/04 08:05:12;;;;;;;7.65;2.00;;;18.80;99.90;;;;;;5114253;28;20085;-74
2023/05/04 08:07:38;;;;;;;39.53;5.18;;;18.90;99.90;;;;;;5115259;28;20024;-75
2023/05/04 08:10:04;;;;;;;9.20;2.30;;;18.90;99.90;;;;;;5115167;28;20039;-75
2023/05/04 08:12:30;;;;;;;8.68;2.20;;;18.90;99.90;;;;;;5115029;28;20060;-76
2023/05/04 08:14:55;;;;;;;9.55;4.40;;;18.90;99.90;;;;;;5115877;28;20445;-75
2023/05/04 08:17:21;;;;;;;8.18;3.90;;;18.90;99.90;;;;;;5115228;28;20395;-75
2023/05/04 08:19:46;;;;;;;7.25;2.55;;;19.00;99.90;;;;;;5114849;28;20434;-75
2023/05/04 08:22:12;;;;;;;9.73;2.83;;;19.10;99.90;;;;;;5114879;28;20059;-75
2023/05/04 08:24:38;;;;;;;8.25;2.40;;;19.10;99.90;;;;;;5114959;28;20023;-75
2023/05/04 08:27:04;;;;;;;6.40;2.30;;;19.10;99.90;;;;;;5114761;28;20492;-75
2023/05/04 08:29:30;;;;;;;16.75;6.63;;;19.20;99.90;;;;;;5114800;28;20039;-75
2023/05/04 08:31:57;;;;;;;8.00;2.90;;;19.20;99.90;;;;;;5115133;28;20484;-76
2023/05/04 08:34:23;;;;;;;9.23;2.30;;;19.30;99.90;;;;;;5114514;28;20062;-74
2023/05/04 08:36:49;;;;;;;16.65;2.40;;;19.30;99.90;;;;;;5115171;28;20027;-79
2023/05/04 08:39:17;;;;;;;6.22;1.73;;;19.40;99.90;;;;;;5114691;28;20048;-78
2023/05/04 08:41:43;;;;;;;4.50;1.73;;;19.50;99.90;;;;;;5115533;28;20023;-78
2023/05/04 08:44:10;;;;;;;6.53;2.63;;;19.50;99.90;;;;;;5114524;28;20088;-78
2023/05/04 08:46:39;;;;;;;7.60;1.90;;;19.50;99.90;;;;;;5114653;28;20020;-78
2023/05/04 08:49:06;;;;;;;7.10;1.77;;;19.50;99.90;;;;;;5113745;28;20030;-78
2023/05/04 08:51:36;;;;;;;5.75;2.38;;;19.50;99.90;;;;;;5113992;28;20047;-78
2023/05/04 08:54:07;;;;;;;7.60;1.92;;;19.50;99.90;;;;;;5114248;28;20024;-79
2023/05/04 08:56:35;;;;;;;5.32;2.33;;;19.60;99.90;;;;;;5114156;28;20035;-77
2023/05/04 08:59:02;;;;;;;6.50;1.60;;;19.60;99.90;;;;;;5095050;28;20490;-76
2023/05/04 09:01:30;;;;;;;7.97;2.33;;;19.50;99.90;;;;;;5113486;28;20065;-75
2023/05/04 09:03:56;;;;;;;9.75;2.05;;;19.60;99.90;;;;;;5113619;28;20026;-76
2023/05/04 09:06:23;;;;;;;7.75;1.92;;;19.60;99.90;;;;;;5114246;28;20828;-75
2023/05/04 09:08:48;;;;;;;5.63;1.80;;;19.80;99.90;;;;;;5113557;28;20050;-76
2023/05/04 09:11:14;;;;;;;5.93;1.67;;;20.00;99.90;;;;;;5114023;28;20481;-76
2023/05/04 09:13:41;;;;;;;5.25;1.75;;;20.10;99.90;;;;;;5113828;28;20449;-77
2023/05/04 09:16:07;;;;;;;4.85;1.70;;;20.20;99.90;;;;;;5113597;28;20069;-76
2023/05/04 09:18:41;;;;;;;6.70;2.10;;;20.20;99.90;;;;;;5113591;28;20043;-77
2023/05/04 09:21:07;;;;;;;5.30;1.95;;;20.20;99.90;;;;;;5114065;28;20099;-76
2023/05/04 09:23:47;;;;;;;7.05;1.90;;;20.30;99.90;;;;;;5114078;28;20103;-76
2023/05/04 09:26:13;;;;;;;5.93;1.88;;;20.30;99.90;;;;;;5113879;28;20038;-75
2023/05/04 09:28:39;;;;;;;4.05;1.80;;;20.30;99.90;;;;;;5096126;28;20412;-76
2023/05/04 09:31:06;;;;;;;5.80;1.77;;;20.40;99.90;;;;;;5113502;28;20024;-76
2023/05/04 09:33:32;;;;;;;4.47;1.70;;;20.40;99.90;;;;;;5113601;28;20080;-76
2023/05/04 09:36:13;;;;;;;7.70;1.83;;;20.30;99.90;;;;;;5113572;28;20027;-75
2023/05/04 09:38:40;;;;;;;4.60;1.65;;;20.30;99.90;;;;;;5113448;28;20529;-75
2023/05/04 09:41:05;;;;;;;5.85;1.80;;;20.40;99.90;;;;;;5113814;28;20088;-76
2023/05/04 09:43:42;;;;;;;4.65;1.80;;;20.40;99.90;;;;;;5113527;28;20530;-76
2023/05/04 09:46:18;;;;;;;6.38;1.80;;;20.40;99.90;;;;;;5095492;28;20039;-76
2023/05/04 09:48:55;;;;;;;6.45;1.77;;;20.40;99.90;;;;;;5113745;28;20055;-76
2023/05/04 09:51:23;;;;;;;6.68;1.67;;;20.50;99.90;;;;;;5114052;28;20057;-76
2023/05/04 09:53:50;;;;;;;4.63;1.63;;;20.40;99.90;;;;;;5112789;28;21010;-78
2023/05/04 09:56:28;;;;;;;6.72;1.90;;;20.40;99.90;;;;;;5113246;28;20108;-81
2023/05/04 09:58:57;;;;;;;4.78;1.40;;;20.50;99.90;;;;;;5112706;28;20061;-82
2023/05/04 10:01:26;;;;;;;7.38;2.00;;;20.60;99.90;;;;;;5113293;28;20024;-82
2023/05/04 10:03:52;;;;;;;6.03;1.60;;;20.60;99.90;;;;;;5113578;28;20511;-82
2023/05/04 10:06:20;;;;;;;5.00;1.90;;;20.60;99.90;;;;;;5113474;28;20484;-80
2023/05/04 10:08:48;;;;;;;4.97;1.70;;;20.50;99.90;;;;;;5115744;28;20027;-81
2023/05/04 10:11:17;;;;;;;4.38;1.80;;;20.50;99.90;;;;;;5121137;28;20015;-79
2023/05/04 10:13:44;;;;;;;5.57;1.65;;;20.60;99.90;;;;;;5113665;28;20036;-81
2023/05/04 10:16:35;;;;;;;4.63;1.85;;;20.50;99.90;;;;;;5112614;28;20047;-80
2023/05/04 10:19:11;;;;;;;7.70;2.10;;;20.70;99.90;;;;;;5050491;28;20040;-77
2023/05/04 10:22:14;;;;;;;5.43;2.50;;;20.70;99.90;;;;;;5049426;28;20091;-77
2023/05/04 10:25:17;;;;;;;4.10;1.90;;;20.80;99.90;;;;;;5010112;28;20495;-77
2023/05/04 10:27:56;;;;;;;6.82;2.10;;;20.90;99.90;;;;;;5009247;28;20356;-78
2023/05/04 10:30:22;;;;;;;6.00;1.80;;;21.00;99.90;;;;;;5009797;28;20079;-78
2023/05/04 10:32:57;;;;;;;5.28;1.67;;;21.10;99.90;;;;;;4993960;28;20450;-79
2023/05/04 10:35:24;;;;;;;6.22;1.95;;;21.20;99.90;;;;;;5010268;28;20045;-78
2023/05/04 10:37:53;;;;;;;5.00;1.80;;;21.20;99.90;;;;;;5010322;28;20061;-80
2023/05/04 10:40:38;;;;;;;6.25;1.85;;;21.20;99.90;;;;;;5009992;28;20092;-80
2023/05/04 10:43:05;;;;;;;6.45;2.05;;;21.20;99.90;;;;;;5010207;28;20167;-80
2023/05/04 10:45:38;;;;;;;8.45;2.28;;;21.20;99.90;;;;;;5009528;28;20045;-81
2023/05/04 10:48:05;;;;;;;7.80;1.90;;;21.30;99.90;;;;;;5010092;28;20121;-81
2023/05/04 10:50:48;;;;;;;5.05;1.80;;;21.40;99.90;;;;;;5009857;28;20269;-80
2023/05/04 10:53:17;;;;;;;5.80;1.77;;;21.30;99.90;;;;;;5010325;28;20022;-80
2023/05/04 10:55:45;;;;;;;6.13;2.00;;;21.30;99.90;;;;;;5027074;28;20028;-79
2023/05/04 10:58:15;;;;;;;5.28;1.70;;;21.30;99.90;;;;;;5068865;28;20056;-77
2023/05/04 11:00:45;;;;;;;5.80;1.80;;;21.30;99.90;;;;;;5079574;28;20470;-79
2023/05/04 11:03:12;;;;;;;4.82;1.52;;;21.30;99.90;;;;;;5112438;28;20488;-80
2023/05/04 11:05:44;;;;;;;4.72;1.67;;;21.40;99.90;;;;;;5112214;28;20035;-80
2023/05/04 11:08:21;;;;;;;4.00;1.70;;;21.40;99.90;;;;;;5112165;28;20070;-80
2023/05/04 11:10:48;;;;;;;4.95;1.40;;;21.50;99.90;;;;;;5111829;28;20447;-80
2023/05/04 11:13:17;;;;;;;6.20;1.63;;;21.60;99.90;;;;;;5112137;28;20613;-79
2023/05/04 11:15:47;;;;;;;6.15;1.63;;;21.60;99.90;;;;;;5111889;28;20027;-79
2023/05/04 11:18:13;;;;;;;3.35;1.20;;;21.70;99.90;;;;;;5112587;28;20023;-78
2023/05/04 11:20:40;;;;;;;5.90;1.40;;;21.60;99.90;;;;;;5111757;28;20020;-77
2023/05/04 11:23:09;;;;;;;4.32;1.50;;;21.70;99.90;;;;;;5111372;28;20066;-77
2023/05/04 11:25:36;;;;;;;4.63;1.50;;;21.70;99.90;;;;;;5111409;28;20133;-78
2023/05/04 11:28:02;;;;;;;6.07;1.60;;;21.70;99.90;;;;;;5111227;28;20055;-78
2023/05/04 11:30:33;;;;;;;5.68;1.90;;;21.60;99.90;;;;;;5111776;28;20016;-78
2023/05/04 11:32:59;;;;;;;4.25;1.60;;;21.80;99.90;;;;;;5111621;28;20024;-78
2023/05/04 11:35:25;;;;;;;4.72;1.30;;;21.80;99.90;;;;;;5111660;28;20515;-78
2023/05/04 11:37:51;;;;;;;4.03;1.50;;;21.70;99.90;;;;;;5111748;28;20028;-77
2023/05/04 11:40:25;;;;;;;3.63;1.40;;;21.60;99.90;;;;;;5115234;28;20131;-78
2023/05/04 11:42:56;;;;;;;3.15;1.30;;;21.70;99.90;;;;;;5115529;28;20496;-78
2023/05/04 11:45:27;;;;;;;4.35;1.30;;;21.90;99.90;;;;;;5115711;28;20036;-78
2023/05/04 11:47:55;;;;;;;3.30;1.20;;;22.10;99.90;;;;;;5115610;28;20028;-78
2023/05/04 11:50:21;;;;;;;3.88;1.42;;;22.20;99.90;;;;;;5116060;28;20028;-77
2023/05/04 11:52:48;;;;;;;7.25;1.48;;;22.10;99.90;;;;;;5115914;28;20059;-78
2023/05/04 11:55:30;;;;;;;4.70;1.30;;;22.00;99.90;;;;;;5115896;28;20023;-78
2023/05/04 11:58:22;;;;;;;6.40;1.60;;;21.90;99.90;;;;;;5115457;28;20023;-78
2023/05/04 12:00:56;;;;;;;2.75;1.27;;;22.00;99.90;;;;;;5115661;28;20063;-78
2023/05/04 12:03:26;;;;;;;3.53;1.10;;;21.90;99.90;;;;;;5115606;28;20024;-77
2023/05/04 12:05:56;;;;;;;5.65;1.67;;;22.10;99.90;;;;;;5115871;28;20107;-78
2023/05/04 12:08:28;;;;;;;5.65;1.40;;;22.20;99.90;;;;;;5115464;28;20031;-78
2023/05/04 12:11:13;;;;;;;3.90;1.27;;;22.30;99.90;;;;;;5115065;28;20019;-78
2023/05/04 12:13:40;;;;;;;3.70;1.27;;;22.20;99.90;;;;;;5115721;28;20043;-79
2023/05/04 12:16:09;;;;;;;3.58;1.30;;;22.30;99.90;;;;;;5115867;28;20547;-79
2023/05/04 12:18:36;;;;;;;4.03;1.48;;;22.40;99.90;;;;;;5115239;28;20031;-78
2023/05/04 12:21:08;;;;;;;4.30;1.50;;;22.20;99.90;;;;;;5115625;28;20035;-79
2023/05/04 12:23:35;;;;;;;4.10;1.52;;;22.10;99.90;;;;;;5115417;28;20048;-78
2023/05/04 12:26:01;;;;;;;4.03;1.30;;;22.10;99.90;;;;;;5115322;28;20031;-79
2023/05/04 12:28:28;;;;;;;5.55;1.60;;;22.10;99.90;;;;;;5115059;28;20026;-78
2023/05/04 12:30:55;;;;;;;4.78;1.63;;;22.10;99.90;;;;;;5115063;28;20110;-78
2023/05/04 12:33:21;;;;;;;3.63;1.30;;;22.30;99.90;;;;;;5115117;28;20064;-78
2023/05/04 12:35:47;;;;;;;6.18;1.50;;;22.40;99.90;;;;;;5115308;28;20023;-78
2023/05/04 12:38:12;;;;;;;3.45;1.42;;;22.40;99.90;;;;;;5114813;28;20035;-77
2023/05/04 12:40:38;;;;;;;4.72;1.55;;;22.40;99.90;;;;;;5096546;28;20097;-77
2023/05/04 12:43:04;;;;;;;3.72;1.40;;;22.20;99.90;;;;;;5115019;28;20019;-78